sensor_id;sensor_type;location;lat;lon;timestamp;pressure;altitude;pressure_sealevel;temperature;humidity
47761;BME280;33524;55.434;38.520;2022-08-19T00:01:34;100846.78;;;19.77;56.98
47761;BME280;33524;55.434;38.520;2022-08-19T00:04:05;100853.87;;;19.34;59.08
47761;BME280;33524;55.434;38.520;2022-08-19T00:06:34;100848.38;;;19.70;55.83
47761;BME280;33524;55.434;38.520;2022-08-19T00:09:02;100855.22;;;19.64;57.61
47761;BME280;33524;55.434;38.520;2022-08-19T00:11:32;100870.41;;;19.64;57.15
47761;BME280;33524;55.434;38.520;2022-08-19T00:14:00;100876.19;;;19.85;55.69
47761;BME280;33524;55.434;38.520;2022-08-19T00:16:28;100884.50;;;19.82;55.62
47761;BME280;33524;55.434;38.520;2022-08-19T00:18:56;100887.75;;;20.02;53.67
47761;BME280;33524;55.434;38.520;2022-08-19T00:21:24;100893.41;;;19.65;56.88
47761;BME280;33524;55.434;38.520;2022-08-19T00:23:52;100889.31;;;19.52;58.42
47761;BME280;33524;55.434;38.520;2022-08-19T00:26:20;100897.22;;;19.62;57.73
47761;BME280;33524;55.434;38.520;2022-08-19T00:28:48;100893.97;;;19.24;59.56
47761;BME280;33524;55.434;38.520;2022-08-19T00:31:18;100892.91;;;19.35;57.34
47761;BME280;33524;55.434;38.520;2022-08-19T00:33:46;100895.38;;;19.36;57.52
47761;BME280;33524;55.434;38.520;2022-08-19T00:36:13;100895.50;;;19.27;59.16
47761;BME280;33524;55.434;38.520;2022-08-19T00:38:41;100888.00;;;19.04;60.17
47761;BME280;33524;55.434;38.520;2022-08-19T00:41:14;100888.59;;;19.42;56.25
47761;BME280;33524;55.434;38.520;2022-08-19T00:43:42;100885.00;;;19.07;59.70
47761;BME280;33524;55.434;38.520;2022-08-19T00:46:09;100887.59;;;18.99;58.38
47761;BME280;33524;55.434;38.520;2022-08-19T00:48:37;100890.94;;;18.65;61.61
47761;BME280;33524;55.434;38.520;2022-08-19T00:51:05;100887.87;;;18.60;61.18
47761;BME280;33524;55.434;38.520;2022-08-19T00:53:33;100885.81;;;18.82;59.04
47761;BME280;33524;55.434;38.520;2022-08-19T00:56:01;100874.19;;;18.55;61.73
47761;BME280;33524;55.434;38.520;2022-08-19T00:58:31;100872.81;;;18.51;61.77
47761;BME280;33524;55.434;38.520;2022-08-19T01:01:00;100874.34;;;18.35;61.70
47761;BME280;33524;55.434;38.520;2022-08-19T01:03:28;100887.13;;;18.50;61.37
47761;BME280;33524;55.434;38.520;2022-08-19T01:06:16;100891.50;;;19.05;57.14
47761;BME280;33524;55.434;38.520;2022-08-19T01:08:46;100898.84;;;18.57;60.01
47761;BME280;33524;55.434;38.520;2022-08-19T01:11:16;100906.81;;;18.39;61.88
47761;BME280;33524;55.434;38.520;2022-08-19T01:13:44;100903.72;;;18.16;62.88
47761;BME280;33524;55.434;38.520;2022-08-19T01:16:16;100898.91;;;18.29;61.90
47761;BME280;33524;55.434;38.520;2022-08-19T01:18:45;100905.19;;;18.28;60.59
47761;BME280;33524;55.434;38.520;2022-08-19T01:24:06;100910.75;;;18.35;60.49
47761;BME280;33524;55.434;38.520;2022-08-19T01:26:38;100906.88;;;18.02;63.20
47761;BME280;33524;55.434;38.520;2022-08-19T01:29:08;100907.87;;;18.01;62.77
47761;BME280;33524;55.434;38.520;2022-08-19T01:31:36;100906.78;;;17.93;63.53
47761;BME280;33524;55.434;38.520;2022-08-19T01:34:05;100907.41;;;18.33;60.37
47761;BME280;33524;55.434;38.520;2022-08-19T01:36:35;100913.81;;;18.86;56.75
47761;BME280;33524;55.434;38.520;2022-08-19T01:39:05;100918.16;;;18.41;60.49
47761;BME280;33524;55.434;38.520;2022-08-19T01:41:33;100923.34;;;18.43;58.67
47761;BME280;33524;55.434;38.520;2022-08-19T01:44:01;100925.72;;;18.18;62.15
47761;BME280;33524;55.434;38.520;2022-08-19T01:46:46;100925.16;;;18.14;62.13
47761;BME280;33524;55.434;38.520;2022-08-19T01:49:15;100922.94;;;18.10;62.60
47761;BME280;33524;55.434;38.520;2022-08-19T01:51:43;100917.44;;;18.21;62.20
47761;BME280;33524;55.434;38.520;2022-08-19T01:54:11;100921.28;;;18.37;60.50
47761;BME280;33524;55.434;38.520;2022-08-19T01:56:55;100919.41;;;18.19;61.16
47761;BME280;33524;55.434;38.520;2022-08-19T01:59:25;100919.38;;;17.91;63.13
47761;BME280;33524;55.434;38.520;2022-08-19T02:01:53;100917.38;;;18.03;62.19
47761;BME280;33524;55.434;38.520;2022-08-19T02:04:21;100919.41;;;18.19;60.01
47761;BME280;33524;55.434;38.520;2022-08-19T02:06:48;100917.31;;;17.85;62.84
47761;BME280;33524;55.434;38.520;2022-08-19T02:09:16;100911.03;;;17.67;63.75
47761;BME280;33524;55.434;38.520;2022-08-19T02:11:44;100912.09;;;17.93;60.50
47761;BME280;33524;55.434;38.520;2022-08-19T02:14:11;100912.66;;;17.97;61.69
47761;BME280;33524;55.434;38.520;2022-08-19T02:16:40;100909.31;;;17.85;61.86
47761;BME280;33524;55.434;38.520;2022-08-19T02:19:08;100907.97;;;18.09;60.44
47761;BME280;33524;55.434;38.520;2022-08-19T02:21:36;100911.53;;;17.90;61.85
47761;BME280;33524;55.434;38.520;2022-08-19T02:24:03;100909.59;;;17.82;62.37
47761;BME280;33524;55.434;38.520;2022-08-19T02:26:32;100918.25;;;17.94;61.39
47761;BME280;33524;55.434;38.520;2022-08-19T02:28:59;100914.13;;;18.09;59.23
47761;BME280;33524;55.434;38.520;2022-08-19T02:31:27;100919.81;;;18.24;60.07
47761;BME280;33524;55.434;38.520;2022-08-19T02:33:56;100917.19;;;18.14;60.56
47761;BME280;33524;55.434;38.520;2022-08-19T02:36:24;100925.22;;;18.32;57.84
47761;BME280;33524;55.434;38.520;2022-08-19T02:38:52;100923.16;;;18.26;58.40
47761;BME280;33524;55.434;38.520;2022-08-19T02:41:23;100927.41;;;18.19;59.13
47761;BME280;33524;55.434;38.520;2022-08-19T02:43:53;100930.00;;;18.01;60.11
47761;BME280;33524;55.434;38.520;2022-08-19T02:46:42;100935.78;;;18.24;58.62
47761;BME280;33524;55.434;38.520;2022-08-19T02:49:10;100928.06;;;17.93;59.98
47761;BME280;33524;55.434;38.520;2022-08-19T02:51:40;100929.53;;;17.59;63.32
47761;BME280;33524;55.434;38.520;2022-08-19T02:54:09;100928.97;;;17.65;63.53
47761;BME280;33524;55.434;38.520;2022-08-19T02:56:38;100926.41;;;17.92;61.92
47761;BME280;33524;55.434;38.520;2022-08-19T02:59:06;100926.09;;;17.95;60.33
47761;BME280;33524;55.434;38.520;2022-08-19T03:01:39;100928.66;;;17.87;62.62
47761;BME280;33524;55.434;38.520;2022-08-19T03:04:08;100936.53;;;17.69;63.51
47761;BME280;33524;55.434;38.520;2022-08-19T03:06:37;100938.19;;;17.80;62.08
47761;BME280;33524;55.434;38.520;2022-08-19T03:09:05;100934.91;;;18.33;58.94
47761;BME280;33524;55.434;38.520;2022-08-19T03:11:50;100937.22;;;18.64;58.86
47761;BME280;33524;55.434;38.520;2022-08-19T03:14:19;100935.69;;;18.89;56.04
47761;BME280;33524;55.434;38.520;2022-08-19T03:16:47;100942.13;;;18.87;56.28
47761;BME280;33524;55.434;38.520;2022-08-19T03:19:17;100938.84;;;19.11;55.32
47761;BME280;33524;55.434;38.520;2022-08-19T03:21:45;100936.78;;;18.41;60.31
47761;BME280;33524;55.434;38.520;2022-08-19T03:24:13;100942.84;;;18.61;59.72
47761;BME280;33524;55.434;38.520;2022-08-19T03:26:42;100937.75;;;18.22;61.40
47761;BME280;33524;55.434;38.520;2022-08-19T03:29:11;100946.63;;;18.41;60.28
47761;BME280;33524;55.434;38.520;2022-08-19T03:31:39;100930.31;;;18.71;58.50
47761;BME280;33524;55.434;38.520;2022-08-19T03:34:20;100934.00;;;18.15;62.62
47761;BME280;33524;55.434;38.520;2022-08-19T03:36:48;100936.88;;;18.77;58.74
47761;BME280;33524;55.434;38.520;2022-08-19T03:39:15;100936.19;;;18.93;56.80
47761;BME280;33524;55.434;38.520;2022-08-19T03:41:44;100930.25;;;18.99;58.60
47761;BME280;33524;55.434;38.520;2022-08-19T03:44:19;100933.44;;;18.67;60.39
47761;BME280;33524;55.434;38.520;2022-08-19T03:46:52;100941.31;;;19.04;57.59
47761;BME280;33524;55.434;38.520;2022-08-19T03:49:23;100946.66;;;18.76;58.32
47761;BME280;33524;55.434;38.520;2022-08-19T03:51:55;100941.31;;;19.04;58.37
47761;BME280;33524;55.434;38.520;2022-08-19T03:54:24;100941.81;;;19.26;56.84
47761;BME280;33524;55.434;38.520;2022-08-19T03:56:52;100940.50;;;19.30;58.50
47761;BME280;33524;55.434;38.520;2022-08-19T03:59:25;100941.06;;;19.60;55.83
47761;BME280;33524;55.434;38.520;2022-08-19T04:01:53;100936.47;;;19.08;58.80
47761;BME280;33524;55.434;38.520;2022-08-19T04:04:22;100936.06;;;19.12;59.54
47761;BME280;33524;55.434;38.520;2022-08-19T04:06:55;100931.47;;;19.23;59.17
47761;BME280;33524;55.434;38.520;2022-08-19T04:09:23;100934.25;;;19.65;55.38
47761;BME280;33524;55.434;38.520;2022-08-19T04:11:52;100936.94;;;19.91;55.60
47761;BME280;33524;55.434;38.520;2022-08-19T04:14:24;100935.75;;;19.60;58.22
47761;BME280;33524;55.434;38.520;2022-08-19T04:16:52;100936.31;;;19.71;57.30
47761;BME280;33524;55.434;38.520;2022-08-19T04:19:20;100938.22;;;20.13;53.95
47761;BME280;33524;55.434;38.520;2022-08-19T04:21:49;100937.47;;;19.95;54.75
47761;BME280;33524;55.434;38.520;2022-08-19T04:24:17;100942.69;;;19.52;57.83
47761;BME280;33524;55.434;38.520;2022-08-19T04:26:45;100943.59;;;20.22;54.16
47761;BME280;33524;55.434;38.520;2022-08-19T04:29:14;100941.25;;;20.61;52.60
47761;BME280;33524;55.434;38.520;2022-08-19T04:31:43;100946.94;;;20.66;54.66
47761;BME280;33524;55.434;38.520;2022-08-19T04:34:12;100948.13;;;20.72;53.10
47761;BME280;33524;55.434;38.520;2022-08-19T04:36:41;100944.63;;;20.80;54.58
47761;BME280;33524;55.434;38.520;2022-08-19T04:39:16;100949.31;;;20.78;53.38
47761;BME280;33524;55.434;38.520;2022-08-19T04:41:44;100950.66;;;21.06;51.89
47761;BME280;33524;55.434;38.520;2022-08-19T04:44:31;100947.91;;;21.96;49.47
47761;BME280;33524;55.434;38.520;2022-08-19T04:47:02;100955.19;;;22.59;47.03
47761;BME280;33524;55.434;38.520;2022-08-19T04:49:37;100949.91;;;22.73;47.15
47761;BME280;33524;55.434;38.520;2022-08-19T04:52:07;100947.41;;;23.03;46.60
47761;BME280;33524;55.434;38.520;2022-08-19T04:54:35;100951.91;;;23.26;46.22
47761;BME280;33524;55.434;38.520;2022-08-19T04:57:08;100953.94;;;22.38;48.82
47761;BME280;33524;55.434;38.520;2022-08-19T04:59:37;100944.84;;;22.79;47.70
47761;BME280;33524;55.434;38.520;2022-08-19T05:02:07;100946.88;;;22.76;47.85
47761;BME280;33524;55.434;38.520;2022-08-19T05:04:35;100941.59;;;23.14;46.89
47761;BME280;33524;55.434;38.520;2022-08-19T05:07:07;100944.50;;;23.28;46.75
47761;BME280;33524;55.434;38.520;2022-08-19T05:09:34;100937.81;;;23.01;47.61
47761;BME280;33524;55.434;38.520;2022-08-19T05:12:23;100937.69;;;22.94;48.59
47761;BME280;33524;55.434;38.520;2022-08-19T05:14:55;100939.34;;;23.41;46.87
47761;BME280;33524;55.434;38.520;2022-08-19T05:17:25;100939.16;;;23.28;47.18
47761;BME280;33524;55.434;38.520;2022-08-19T05:19:57;100933.03;;;22.88;48.37
47761;BME280;33524;55.434;38.520;2022-08-19T05:22:44;100927.16;;;23.53;47.17
47761;BME280;33524;55.434;38.520;2022-08-19T05:25:14;100938.41;;;23.34;47.02
47761;BME280;33524;55.434;38.520;2022-08-19T05:27:42;100937.22;;;23.51;46.90
47761;BME280;33524;55.434;38.520;2022-08-19T05:30:10;100943.31;;;22.53;50.16
47761;BME280;33524;55.434;38.520;2022-08-19T05:32:39;100946.16;;;22.60;49.59
47761;BME280;33524;55.434;38.520;2022-08-19T05:35:06;100939.84;;;23.60;46.92
47761;BME280;33524;55.434;38.520;2022-08-19T05:37:34;100947.56;;;23.92;46.16
47761;BME280;33524;55.434;38.520;2022-08-19T05:40:02;100942.59;;;24.41;44.78
47761;BME280;33524;55.434;38.520;2022-08-19T05:42:30;100954.66;;;24.45;44.48
47761;BME280;33524;55.434;38.520;2022-08-19T05:44:58;100953.03;;;24.65;44.19
47761;BME280;33524;55.434;38.520;2022-08-19T05:47:25;100959.19;;;24.44;44.90
47761;BME280;33524;55.434;38.520;2022-08-19T05:49:53;100961.38;;;24.70;45.18
47761;BME280;33524;55.434;38.520;2022-08-19T05:52:24;100965.94;;;24.91;43.99
47761;BME280;33524;55.434;38.520;2022-08-19T05:54:54;100952.81;;;25.25;43.30
47761;BME280;33524;55.434;38.520;2022-08-19T05:57:23;100959.16;;;25.39;43.17
47761;BME280;33524;55.434;38.520;2022-08-19T05:59:51;100959.59;;;25.42;43.29
47761;BME280;33524;55.434;38.520;2022-08-19T06:02:25;100956.53;;;24.81;45.01
47761;BME280;33524;55.434;38.520;2022-08-19T06:04:53;100956.03;;;25.98;42.39
47761;BME280;33524;55.434;38.520;2022-08-19T06:07:21;100952.06;;;26.35;41.22
47761;BME280;33524;55.434;38.520;2022-08-19T06:09:49;100956.41;;;27.11;40.34
47761;BME280;33524;55.434;38.520;2022-08-19T06:12:30;100956.00;;;26.88;40.91
47761;BME280;33524;55.434;38.520;2022-08-19T06:15:01;100947.69;;;26.89;40.45
47761;BME280;33524;55.434;38.520;2022-08-19T06:17:29;100943.16;;;27.50;40.37
47761;BME280;33524;55.434;38.520;2022-08-19T06:19:58;100941.81;;;28.57;38.29
47761;BME280;33524;55.434;38.520;2022-08-19T06:22:27;100941.59;;;28.91;37.76
47761;BME280;33524;55.434;38.520;2022-08-19T06:24:55;100936.50;;;29.51;37.15
47761;BME280;33524;55.434;38.520;2022-08-19T06:27:23;100935.59;;;29.57;37.21
47761;BME280;33524;55.434;38.520;2022-08-19T06:29:50;100936.66;;;29.38;37.14
47761;BME280;33524;55.434;38.520;2022-08-19T06:32:18;100930.94;;;29.46;37.36
47761;BME280;33524;55.434;38.520;2022-08-19T06:34:46;100938.31;;;28.82;39.25
47761;BME280;33524;55.434;38.520;2022-08-19T06:37:13;100934.66;;;30.07;36.81
47761;BME280;33524;55.434;38.520;2022-08-19T06:39:42;100934.47;;;31.00;35.43
47761;BME280;33524;55.434;38.520;2022-08-19T06:42:11;100932.91;;;30.50;36.26
47761;BME280;33524;55.434;38.520;2022-08-19T06:44:41;100933.22;;;30.23;35.81
47761;BME280;33524;55.434;38.520;2022-08-19T06:47:18;100932.28;;;29.55;35.82
47761;BME280;33524;55.434;38.520;2022-08-19T06:49:55;100935.31;;;29.66;37.72
47761;BME280;33524;55.434;38.520;2022-08-19T06:52:31;100932.72;;;31.29;35.38
47761;BME280;33524;55.434;38.520;2022-08-19T06:55:00;100922.59;;;29.66;38.36
47761;BME280;33524;55.434;38.520;2022-08-19T06:57:46;100933.66;;;30.38;37.36
47761;BME280;33524;55.434;38.520;2022-08-19T07:00:15;100932.97;;;31.27;34.97
47761;BME280;33524;55.434;38.520;2022-08-19T07:02:43;100923.94;;;31.97;34.62
47761;BME280;33524;55.434;38.520;2022-08-19T07:05:22;100929.94;;;32.23;34.26
47761;BME280;33524;55.434;38.520;2022-08-19T07:07:49;100941.72;;;31.88;34.66
47761;BME280;33524;55.434;38.520;2022-08-19T07:10:17;100942.19;;;30.72;35.33
47761;BME280;33524;55.434;38.520;2022-08-19T07:12:45;100930.03;;;31.52;31.78
47761;BME280;33524;55.434;38.520;2022-08-19T07:15:14;100943.53;;;31.47;35.90
47761;BME280;33524;55.434;38.520;2022-08-19T07:17:45;100926.44;;;31.05;36.28
47761;BME280;33524;55.434;38.520;2022-08-19T07:20:18;100915.78;;;31.97;35.05
47761;BME280;33524;55.434;38.520;2022-08-19T07:22:46;100928.06;;;32.69;34.09
47761;BME280;33524;55.434;38.520;2022-08-19T07:25:15;100926.22;;;31.77;33.26
47761;BME280;33524;55.434;38.520;2022-08-19T07:27:44;100928.44;;;30.97;37.01
47761;BME280;33524;55.434;38.520;2022-08-19T07:30:14;100928.75;;;32.76;33.72
47761;BME280;33524;55.434;38.520;2022-08-19T07:32:42;100932.84;;;31.81;35.05
47761;BME280;33524;55.434;38.520;2022-08-19T07:35:10;100927.03;;;32.01;35.34
47761;BME280;33524;55.434;38.520;2022-08-19T07:37:38;100939.63;;;31.55;36.20
47761;BME280;33524;55.434;38.520;2022-08-19T07:40:11;100935.00;;;32.60;34.70
47761;BME280;33524;55.434;38.520;2022-08-19T07:42:39;100925.28;;;33.32;31.01
47761;BME280;33524;55.434;38.520;2022-08-19T07:45:07;100934.75;;;33.63;32.43
47761;BME280;33524;55.434;38.520;2022-08-19T07:47:35;100946.78;;;33.11;32.54
47761;BME280;33524;55.434;38.520;2022-08-19T07:50:17;100942.31;;;31.67;33.76
47761;BME280;33524;55.434;38.520;2022-08-19T07:52:48;100947.75;;;31.67;35.46
47761;BME280;33524;55.434;38.520;2022-08-19T07:55:22;100935.25;;;33.99;31.57
47761;BME280;33524;55.434;38.520;2022-08-19T07:58:09;100939.19;;;34.30;30.99
47761;BME280;33524;55.434;38.520;2022-08-19T08:00:37;100933.31;;;34.00;31.15
47761;BME280;33524;55.434;38.520;2022-08-19T08:03:05;100934.25;;;34.54;28.71
47761;BME280;33524;55.434;38.520;2022-08-19T08:05:33;100931.53;;;34.60;30.38
47761;BME280;33524;55.434;38.520;2022-08-19T08:08:19;100935.91;;;34.33;30.68
47761;BME280;33524;55.434;38.520;2022-08-19T08:11:14;100937.00;;;32.53;31.60
47761;BME280;33524;55.434;38.520;2022-08-19T08:13:43;100942.75;;;31.87;30.85
47761;BME280;33524;55.434;38.520;2022-08-19T08:16:11;100939.66;;;32.76;33.57
47761;BME280;33524;55.434;38.520;2022-08-19T08:18:40;100942.28;;;32.88;33.33
47761;BME280;33524;55.434;38.520;2022-08-19T08:21:17;100942.09;;;31.68;34.79
47761;BME280;33524;55.434;38.520;2022-08-19T08:23:44;100942.53;;;31.89;35.14
47761;BME280;33524;55.434;38.520;2022-08-19T08:26:12;100935.41;;;33.70;30.49
47761;BME280;33524;55.434;38.520;2022-08-19T08:28:42;100936.06;;;34.00;31.33
47761;BME280;33524;55.434;38.520;2022-08-19T08:31:13;100952.16;;;32.61;32.86
47761;BME280;33524;55.434;38.520;2022-08-19T08:33:42;100958.31;;;33.02;32.46
47761;BME280;33524;55.434;38.520;2022-08-19T08:36:10;100951.28;;;32.03;29.81
47761;BME280;33524;55.434;38.520;2022-08-19T08:38:38;100948.69;;;31.84;31.23
47761;BME280;33524;55.434;38.520;2022-08-19T08:43:55;100937.03;;;33.15;32.07
47761;BME280;33524;55.434;38.520;2022-08-19T08:49:04;100948.72;;;32.99;32.49
47761;BME280;33524;55.434;38.520;2022-08-19T08:51:40;100952.91;;;32.04;30.80
47761;BME280;33524;55.434;38.520;2022-08-19T08:54:15;100942.81;;;33.02;30.89
47761;BME280;33524;55.434;38.520;2022-08-19T08:56:45;100962.94;;;33.01;29.97
47761;BME280;33524;55.434;38.520;2022-08-19T08:59:19;100962.31;;;33.62;31.38
47761;BME280;33524;55.434;38.520;2022-08-19T09:01:48;100963.00;;;32.72;32.92
47761;BME280;33524;55.434;38.520;2022-08-19T09:04:16;100967.12;;;32.75;32.42
47761;BME280;33524;55.434;38.520;2022-08-19T09:06:59;100965.41;;;32.86;27.62
47761;BME280;33524;55.434;38.520;2022-08-19T09:09:52;100962.44;;;33.04;31.87
47761;BME280;33524;55.434;38.520;2022-08-19T09:12:28;100971.19;;;34.13;29.92
47761;BME280;33524;55.434;38.520;2022-08-19T09:15:00;100973.41;;;34.16;29.62
47761;BME280;33524;55.434;38.520;2022-08-19T09:17:30;100974.31;;;33.10;28.89
47761;BME280;33524;55.434;38.520;2022-08-19T09:20:08;100975.97;;;32.99;26.59
47761;BME280;33524;55.434;38.520;2022-08-19T09:22:41;100979.66;;;33.22;30.40
47761;BME280;33524;55.434;38.520;2022-08-19T09:25:16;100979.50;;;33.62;25.58
47761;BME280;33524;55.434;38.520;2022-08-19T09:27:53;100976.41;;;33.58;28.32
47761;BME280;33524;55.434;38.520;2022-08-19T09:30:41;100987.25;;;33.53;27.85
47761;BME280;33524;55.434;38.520;2022-08-19T09:33:09;100992.19;;;33.06;29.22
47761;BME280;33524;55.434;38.520;2022-08-19T09:35:36;100986.94;;;33.33;25.18
47761;BME280;33524;55.434;38.520;2022-08-19T09:38:20;100992.53;;;32.52;29.87
47761;BME280;33524;55.434;38.520;2022-08-19T09:40:48;100994.38;;;33.21;28.52
47761;BME280;33524;55.434;38.520;2022-08-19T09:43:17;100995.00;;;33.28;28.36
47761;BME280;33524;55.434;38.520;2022-08-19T09:46:00;100991.28;;;32.71;25.20
47761;BME280;33524;55.434;38.520;2022-08-19T09:48:28;100995.44;;;33.36;28.34
47761;BME280;33524;55.434;38.520;2022-08-19T09:51:01;100997.88;;;31.47;26.93
47761;BME280;33524;55.434;38.520;2022-08-19T09:53:31;100993.75;;;31.92;28.28
47761;BME280;33524;55.434;38.520;2022-08-19T09:56:00;100987.72;;;32.54;24.26
47761;BME280;33524;55.434;38.520;2022-08-19T09:58:30;100992.34;;;32.42;25.77
47761;BME280;33524;55.434;38.520;2022-08-19T10:00:59;100994.03;;;30.52;24.90
47761;BME280;33524;55.434;38.520;2022-08-19T10:03:28;100991.47;;;31.42;30.43
47761;BME280;33524;55.434;38.520;2022-08-19T10:05:56;100985.84;;;32.71;25.20
47761;BME280;33524;55.434;38.520;2022-08-19T10:08:26;100999.53;;;31.72;31.20
47761;BME280;33524;55.434;38.520;2022-08-19T10:10:55;100989.37;;;32.03;29.39
47761;BME280;33524;55.434;38.520;2022-08-19T10:13:26;100994.47;;;32.40;29.39
47761;BME280;33524;55.434;38.520;2022-08-19T10:16:04;101003.66;;;30.67;29.48
47761;BME280;33524;55.434;38.520;2022-08-19T10:18:39;101010.31;;;32.02;30.20
47761;BME280;33524;55.434;38.520;2022-08-19T10:21:17;101018.03;;;31.40;25.27
47761;BME280;33524;55.434;38.520;2022-08-19T10:23:46;101010.63;;;30.07;33.69
47761;BME280;33524;55.434;38.520;2022-08-19T10:26:20;101006.06;;;33.55;29.02
47761;BME280;33524;55.434;38.520;2022-08-19T10:28:48;100999.13;;;33.13;28.77
47761;BME280;33524;55.434;38.520;2022-08-19T10:31:17;100998.59;;;32.54;24.43
47761;BME280;33524;55.434;38.520;2022-08-19T10:34:07;101008.88;;;33.09;27.13
47761;BME280;33524;55.434;38.520;2022-08-19T10:36:38;101001.94;;;33.86;27.67
47761;BME280;33524;55.434;38.520;2022-08-19T10:39:22;100995.94;;;33.89;24.46
47761;BME280;33524;55.434;38.520;2022-08-19T10:41:56;100998.12;;;34.31;26.59
47761;BME280;33524;55.434;38.520;2022-08-19T10:44:25;101010.19;;;32.09;29.98
47761;BME280;33524;55.434;38.520;2022-08-19T10:46:58;101011.13;;;32.03;29.60
47761;BME280;33524;55.434;38.520;2022-08-19T10:49:26;101010.69;;;32.34;30.46
47761;BME280;33524;55.434;38.520;2022-08-19T10:51:54;101001.22;;;32.77;26.69
47761;BME280;33524;55.434;38.520;2022-08-19T10:54:46;101009.69;;;32.52;29.73
47761;BME280;33524;55.434;38.520;2022-08-19T10:57:36;101008.88;;;32.11;28.48
47761;BME280;33524;55.434;38.520;2022-08-19T11:00:24;101012.69;;;33.76;27.93
47761;BME280;33524;55.434;38.520;2022-08-19T11:02:52;101014.62;;;33.97;27.02
47761;BME280;33524;55.434;38.520;2022-08-19T11:05:22;101012.75;;;33.13;28.85
47761;BME280;33524;55.434;38.520;2022-08-19T11:08:08;101008.72;;;32.18;28.80
47761;BME280;33524;55.434;38.520;2022-08-19T11:10:50;101017.22;;;31.39;28.69
47761;BME280;33524;55.434;38.520;2022-08-19T11:13:18;101012.12;;;30.03;33.13
47761;BME280;33524;55.434;38.520;2022-08-19T11:15:46;101000.59;;;30.26;34.00
47761;BME280;33524;55.434;38.520;2022-08-19T11:18:14;101000.34;;;32.20;29.28
47761;BME280;33524;55.434;38.520;2022-08-19T11:20:44;101006.09;;;33.72;28.97
47761;BME280;33524;55.434;38.520;2022-08-19T11:23:12;101001.94;;;33.86;28.43
47761;BME280;33524;55.434;38.520;2022-08-19T11:25:39;101003.94;;;31.61;26.54
47761;BME280;33524;55.434;38.520;2022-08-19T11:28:07;100996.81;;;32.48;29.01
47761;BME280;33524;55.434;38.520;2022-08-19T11:30:36;101001.19;;;32.61;28.12
47761;BME280;33524;55.434;38.520;2022-08-19T11:33:04;101004.81;;;31.43;27.50
47761;BME280;33524;55.434;38.520;2022-08-19T11:35:32;100988.16;;;33.42;29.06
47761;BME280;33524;55.434;38.520;2022-08-19T11:38:00;100982.94;;;33.24;29.02
47761;BME280;33524;55.434;38.520;2022-08-19T11:40:28;100979.28;;;33.01;28.55
47761;BME280;33524;55.434;38.520;2022-08-19T11:42:56;100981.09;;;33.80;27.99
47761;BME280;33524;55.434;38.520;2022-08-19T11:45:24;100979.56;;;33.16;28.32
47761;BME280;33524;55.434;38.520;2022-08-19T11:47:52;100986.59;;;32.67;29.34
47761;BME280;33524;55.434;38.520;2022-08-19T11:50:21;100985.13;;;33.39;28.16
47761;BME280;33524;55.434;38.520;2022-08-19T11:52:53;100985.22;;;32.98;28.97
47761;BME280;33524;55.434;38.520;2022-08-19T11:55:21;100983.44;;;33.54;28.48
47761;BME280;33524;55.434;38.520;2022-08-19T11:57:49;100976.69;;;31.85;27.66
47761;BME280;33524;55.434;38.520;2022-08-19T12:00:17;100993.50;;;30.62;28.03
47761;BME280;33524;55.434;38.520;2022-08-19T12:02:44;101008.44;;;31.25;28.42
47761;BME280;33524;55.434;38.520;2022-08-19T12:05:15;100992.00;;;32.38;28.13
47761;BME280;33524;55.434;38.520;2022-08-19T12:07:43;100995.03;;;31.89;29.58
47761;BME280;33524;55.434;38.520;2022-08-19T12:10:11;101013.50;;;31.64;28.21
47761;BME280;33524;55.434;38.520;2022-08-19T12:12:38;100992.38;;;32.70;28.26
47761;BME280;33524;55.434;38.520;2022-08-19T12:15:13;100992.56;;;31.88;28.11
47761;BME280;33524;55.434;38.520;2022-08-19T12:17:41;101002.69;;;31.33;29.79
47761;BME280;33524;55.434;38.520;2022-08-19T12:20:09;101006.84;;;31.36;30.10
47761;BME280;33524;55.434;38.520;2022-08-19T12:22:38;101000.59;;;32.47;29.28
47761;BME280;33524;55.434;38.520;2022-08-19T12:25:08;101007.09;;;32.17;29.34
47761;BME280;33524;55.434;38.520;2022-08-19T12:27:36;101015.38;;;31.75;28.21
47761;BME280;33524;55.434;38.520;2022-08-19T12:30:09;101005.16;;;32.29;29.08
47761;BME280;33524;55.434;38.520;2022-08-19T12:32:37;101012.91;;;32.09;29.26
47761;BME280;33524;55.434;38.520;2022-08-19T12:35:06;101003.97;;;31.31;27.85
47761;BME280;33524;55.434;38.520;2022-08-19T12:37:39;101015.47;;;30.91;30.60
47761;BME280;33524;55.434;38.520;2022-08-19T12:40:08;101009.06;;;31.39;29.64
47761;BME280;33524;55.434;38.520;2022-08-19T12:42:37;101022.16;;;30.21;30.57
47761;BME280;33524;55.434;38.520;2022-08-19T12:45:12;101016.56;;;29.79;31.15
47761;BME280;33524;55.434;38.520;2022-08-19T12:47:40;101023.66;;;31.45;30.74
47761;BME280;33524;55.434;38.520;2022-08-19T12:50:21;101018.47;;;30.83;31.54
47761;BME280;33524;55.434;38.520;2022-08-19T12:52:49;101017.19;;;31.27;30.36
47761;BME280;33524;55.434;38.520;2022-08-19T12:55:16;101015.16;;;30.32;32.35
47761;BME280;33524;55.434;38.520;2022-08-19T12:57:46;101023.94;;;31.25;29.71
47761;BME280;33524;55.434;38.520;2022-08-19T13:00:16;101026.87;;;31.11;31.02
47761;BME280;33524;55.434;38.520;2022-08-19T13:02:45;101033.75;;;31.26;30.90
47761;BME280;33524;55.434;38.520;2022-08-19T13:05:15;101031.28;;;30.64;31.52
47761;BME280;33524;55.434;38.520;2022-08-19T13:07:43;101034.38;;;30.12;31.50